Ravinia, South Dakota
Current Conditions -  °F | °C
As of 6:53 PM on Friday 19 Dec 2014 (Local Time) from KMHE Reporting Station
Haze Haze  
Wind Chill: 19°   Ceiling: 600
Heat Index: 30°   Visibility: 6mi
Dew Point: 28°   Wind: 15mph
Humidity: 92%   Direction: 170°S
Pressure: 30.06"   Gusts: NA
Location:  43.14°N, 98.43°W
Report Text: KMHE 200053Z AUTO 17013KT 6SM BR OVC006 M01/M02 A3006 RMK AO2 SLP196 T10111022
Loading
Personal Weather Stations






























Interactive Weather Map New forecast layout! Learn more

10-Day Weather Forecast

Advertisements
Track Severe Weather on mobile